Time;durP1;ratioP1;P1;durP2;ratioP2;P2;SDS_P1;SDS_P2;PMS_P1;PMS_P2;Temp;Humidity;BMP_temperature;BMP_pressure;BME280_temperature;BME280_humidity;BME280_pressure;Samples;Min_cycle;Max_cycle;Signal;HPM_P1;HPM_P2
2023/01/22 00:02:05;;;;;;;32.03;16.23;;;;;;;;;;5051728;28;20052;-70
2023/01/22 00:04:32;;;;;;;38.28;16.65;;;;;;;;;;5051301;28;20500;-71
2023/01/22 00:06:58;;;;;;;31.08;15.07;;;;;;;;;;5030066;28;20493;-68
2023/01/22 00:09:24;;;;;;;24.23;15.30;;;;;;;;;;5031819;28;20067;-68
2023/01/22 00:11:51;;;;;;;31.50;14.90;;;;;;;;;;5031757;28;20077;-68
2023/01/22 00:14:17;;;;;;;25.55;14.90;;;;;;;;;;5031895;28;20501;-68
2023/01/22 00:16:45;;;;;;;31.40;16.80;;;;;;;;;;5031805;28;20045;-68
2023/01/22 00:19:11;;;;;;;35.95;16.23;;;;;;;;;;5035053;28;20076;-68
2023/01/22 00:21:38;;;;;;;34.38;16.50;;;;;;;;;;5046951;28;20040;-68
2023/01/22 00:24:04;;;;;;;28.02;16.30;;;;;;;;;;5050330;28;20493;-69
2023/01/22 00:26:31;;;;;;;28.15;16.25;;;;;;;;;;5050562;28;20056;-69
2023/01/22 00:28:57;;;;;;;34.70;16.58;;;;;;;;;;5051817;28;20440;-68
2023/01/22 00:31:23;;;;;;;45.17;17.63;;;;;;;;;;5051069;28;20045;-68
2023/01/22 00:33:50;;;;;;;31.13;15.90;;;;;;;;;;5051440;28;20059;-68
2023/01/22 00:36:17;;;;;;;35.47;19.85;;;;;;;;;;5051159;28;20061;-68
2023/01/22 00:38:44;;;;;;;31.05;16.35;;;;;;;;;;5033781;28;20511;-69
2023/01/22 00:41:11;;;;;;;31.67;15.25;;;;;;;;;;5051667;28;20079;-68
2023/01/22 00:43:38;;;;;;;29.75;16.38;;;;;;;;;;5051685;28;20076;-68
2023/01/22 00:46:04;;;;;;;27.00;14.82;;;;;;;;;;5052044;28;20124;-68
2023/01/22 00:48:31;;;;;;;28.58;15.63;;;;;;;;;;5051974;28;20127;-68
2023/01/22 00:50:57;;;;;;;30.48;16.25;;;;;;;;;;5051914;28;20135;-68
2023/01/22 00:53:24;;;;;;;27.88;16.80;;;;;;;;;;5051604;28;20123;-68
2023/01/22 00:55:57;;;;;;;29.80;16.15;;;;;;;;;;5051930;28;20045;-68
2023/01/22 00:58:24;;;;;;;27.95;16.15;;;;;;;;;;5051585;28;20123;-68
2023/01/22 01:00:51;;;;;;;28.42;15.75;;;;;;;;;;5051540;28;20547;-69
2023/01/22 01:03:27;;;;;;;29.30;16.45;;;;;;;;;;5051519;28;20124;-68
2023/01/22 01:05:53;;;;;;;27.73;16.02;;;;;;;;;;5033746;28;20075;-68
2023/01/22 01:08:20;;;;;;;27.90;16.48;;;;;;;;;;5051241;28;20535;-68
2023/01/22 01:10:46;;;;;;;26.77;15.55;;;;;;;;;;5051576;28;20056;-68
2023/01/22 01:13:13;;;;;;;28.92;16.35;;;;;;;;;;5051311;28;20481;-68
2023/01/22 01:15:39;;;;;;;25.20;16.67;;;;;;;;;;5051502;28;20087;-68
2023/01/22 01:18:07;;;;;;;23.58;15.60;;;;;;;;;;5051463;28;20071;-68
2023/01/22 01:20:34;;;;;;;24.00;14.65;;;;;;;;;;5051429;28;20041;-68
2023/01/22 01:23:00;;;;;;;24.35;14.70;;;;;;;;;;5051356;28;20060;-68
2023/01/22 01:25:27;;;;;;;23.52;15.90;;;;;;;;;;5051222;28;20511;-69
2023/01/22 01:27:53;;;;;;;24.95;15.60;;;;;;;;;;5051294;28;20049;-69
2023/01/22 01:30:19;;;;;;;27.05;16.08;;;;;;;;;;5051205;28;20128;-68
2023/01/22 01:32:46;;;;;;;27.30;15.55;;;;;;;;;;5051197;28;20132;-68
2023/01/22 01:35:12;;;;;;;27.05;15.80;;;;;;;;;;5051389;28;20052;-68
2023/01/22 01:37:39;;;;;;;29.75;17.05;;;;;;;;;;5051496;28;20045;-69
2023/01/22 01:40:05;;;;;;;30.08;18.50;;;;;;;;;;5051357;28;20124;-68
2023/01/22 01:42:35;;;;;;;28.17;17.05;;;;;;;;;;5053401;28;20048;-68
2023/01/22 01:45:17;;;;;;;28.63;17.75;;;;;;;;;;5055312;28;20075;-69
2023/01/22 01:47:44;;;;;;;27.45;16.83;;;;;;;;;;5054955;28;20564;-69
2023/01/22 01:50:11;;;;;;;26.20;15.60;;;;;;;;;;5055247;28;20056;-69
2023/01/22 01:52:37;;;;;;;24.40;16.13;;;;;;;;;;5055110;28;20052;-69
2023/01/22 01:55:05;;;;;;;29.40;15.43;;;;;;;;;;5054921;28;20059;-68
2023/01/22 01:57:32;;;;;;;24.90;14.73;;;;;;;;;;5054877;28;20123;-68
2023/01/22 01:59:59;;;;;;;25.65;14.70;;;;;;;;;;5054805;28;20485;-68
2023/01/22 02:02:25;;;;;;;27.48;15.27;;;;;;;;;;5054700;28;20056;-68
2023/01/22 02:04:52;;;;;;;24.95;15.70;;;;;;;;;;5054663;28;20572;-68
2023/01/22 02:07:19;;;;;;;23.75;15.20;;;;;;;;;;5055790;28;20063;-68
2023/01/22 02:09:45;;;;;;;22.17;15.15;;;;;;;;;;5015072;28;20060;-68
2023/01/22 02:12:12;;;;;;;24.13;15.18;;;;;;;;;;5014858;28;20577;-69
2023/01/22 02:14:40;;;;;;;25.45;15.85;;;;;;;;;;5014739;28;20490;-69
2023/01/22 02:17:10;;;;;;;24.88;15.48;;;;;;;;;;5012572;28;20461;-69
2023/01/22 02:19:38;;;;;;;23.73;15.35;;;;;;;;;;5013791;28;20077;-69
2023/01/22 02:22:11;;;;;;;27.10;16.23;;;;;;;;;;5008469;28;20421;-68
2023/01/22 02:24:37;;;;;;;24.08;14.50;;;;;;;;;;5013732;28;20042;-68
2023/01/22 02:27:04;;;;;;;22.38;15.23;;;;;;;;;;5012820;28;20652;-68
2023/01/22 02:29:30;;;;;;;24.30;15.05;;;;;;;;;;5013558;28;20092;-68
2023/01/22 02:31:57;;;;;;;23.92;15.07;;;;;;;;;;5013273;28;20072;-68
2023/01/22 02:34:23;;;;;;;23.25;14.95;;;;;;;;;;5013767;28;20052;-68
2023/01/22 02:36:50;;;;;;;24.48;16.08;;;;;;;;;;5013625;28;20049;-68
2023/01/22 02:39:16;;;;;;;23.75;15.25;;;;;;;;;;5014209;28;20468;-68
2023/01/22 02:41:43;;;;;;;24.42;14.80;;;;;;;;;;5014589;28;20049;-68
2023/01/22 02:44:10;;;;;;;23.98;14.88;;;;;;;;;;5014631;28;20046;-68
2023/01/22 02:46:36;;;;;;;24.23;14.60;;;;;;;;;;5014348;28;20052;-68
2023/01/22 02:49:02;;;;;;;21.63;14.52;;;;;;;;;;5014271;28;20799;-69
2023/01/22 02:51:29;;;;;;;24.05;15.45;;;;;;;;;;5014495;28;20417;-68
2023/01/22 02:53:55;;;;;;;21.77;14.27;;;;;;;;;;5013970;28;20060;-68
2023/01/22 02:56:22;;;;;;;24.17;15.43;;;;;;;;;;5014014;28;20052;-68
2023/01/22 02:58:48;;;;;;;25.02;15.07;;;;;;;;;;5014151;28;20052;-69
2023/01/22 03:01:19;;;;;;;25.02;15.73;;;;;;;;;;5013950;28;20536;-68
2023/01/22 03:04:10;;;;;;;22.60;14.32;;;;;;;;;;5012781;28;20555;-69
2023/01/22 03:06:37;;;;;;;26.20;15.77;;;;;;;;;;5012674;28;20042;-68
2023/01/22 03:09:04;;;;;;;21.13;13.85;;;;;;;;;;5042356;28;20059;-69
2023/01/22 03:11:32;;;;;;;23.17;15.07;;;;;;;;;;5053588;28;20378;-68
2023/01/22 03:22:14;;;;;;;22.17;14.77;;;;;;;;;;5053486;28;20055;-68
2023/01/22 03:24:41;;;;;;;21.15;14.20;;;;;;;;;;5053242;28;20047;-68
2023/01/22 03:27:08;;;;;;;25.55;15.60;;;;;;;;;;5053193;28;20507;-68
2023/01/22 03:29:37;;;;;;;22.40;14.77;;;;;;;;;;5035516;28;20055;-68
2023/01/22 03:32:04;;;;;;;21.73;14.27;;;;;;;;;;5052830;28;20139;-68
2023/01/22 03:34:31;;;;;;;20.73;13.93;;;;;;;;;;5053271;28;20401;-68
2023/01/22 03:36:57;;;;;;;21.40;13.63;;;;;;;;;;5053139;28;20056;-68
2023/01/22 03:39:24;;;;;;;20.15;13.25;;;;;;;;;;5053225;28;20045;-68
2023/01/22 03:41:50;;;;;;;19.77;13.23;;;;;;;;;;5052965;28;20045;-68
2023/01/22 03:44:17;;;;;;;21.38;14.45;;;;;;;;;;5053076;28;20127;-68
2023/01/22 03:46:43;;;;;;;19.90;13.07;;;;;;;;;;5053191;28;20049;-68
2023/01/22 03:49:11;;;;;;;22.05;14.35;;;;;;;;;;5052800;28;20530;-68
2023/01/22 03:51:38;;;;;;;22.13;14.40;;;;;;;;;;5035082;28;20060;-69
2023/01/22 03:54:04;;;;;;;20.92;13.10;;;;;;;;;;5052567;28;20049;-69
2023/01/22 03:56:31;;;;;;;19.92;13.32;;;;;;;;;;5052636;28;20507;-69
2023/01/22 03:58:57;;;;;;;18.98;13.98;;;;;;;;;;5052553;28;20099;-69
2023/01/22 04:01:24;;;;;;;20.70;13.23;;;;;;;;;;5052874;28;20041;-69
2023/01/22 04:03:51;;;;;;;22.42;14.25;;;;;;;;;;5052474;28;20060;-69
2023/01/22 04:06:19;;;;;;;20.45;13.77;;;;;;;;;;5051871;28;20501;-68
2023/01/22 04:08:46;;;;;;;22.20;13.63;;;;;;;;;;5052733;28;20052;-69
2023/01/22 04:11:13;;;;;;;21.70;14.32;;;;;;;;;;5052316;28;20769;-68
2023/01/22 04:13:40;;;;;;;20.30;13.68;;;;;;;;;;5052245;28;20037;-68
2023/01/22 04:16:07;;;;;;;21.35;14.38;;;;;;;;;;5052229;28;20053;-68
2023/01/22 04:18:33;;;;;;;21.15;13.80;;;;;;;;;;5052218;28;20051;-68
2023/01/22 04:21:00;;;;;;;21.98;14.40;;;;;;;;;;5052248;28;20045;-68
2023/01/22 04:23:26;;;;;;;23.88;14.45;;;;;;;;;;5052066;28;20591;-68
2023/01/22 04:25:53;;;;;;;21.33;13.88;;;;;;;;;;5034296;28;20063;-68
2023/01/22 04:28:19;;;;;;;19.90;13.30;;;;;;;;;;5052036;28;20087;-68
2023/01/22 04:30:46;;;;;;;18.92;12.80;;;;;;;;;;5052367;28;20411;-68
2023/01/22 04:33:13;;;;;;;20.27;13.20;;;;;;;;;;5034481;28;20052;-68
2023/01/22 04:35:39;;;;;;;20.33;13.95;;;;;;;;;;5052139;28;20476;-69
2023/01/22 04:38:06;;;;;;;19.15;13.23;;;;;;;;;;5051976;28;20051;-68
2023/01/22 04:40:33;;;;;;;19.65;13.48;;;;;;;;;;5051767;28;20128;-68
2023/01/22 04:43:00;;;;;;;18.63;13.20;;;;;;;;;;5051758;28;20059;-69
2023/01/22 04:45:26;;;;;;;19.50;13.80;;;;;;;;;;5051776;28;20049;-69
2023/01/22 04:47:52;;;;;;;19.55;13.35;;;;;;;;;;5052053;28;20398;-69
2023/01/22 04:50:20;;;;;;;20.90;14.25;;;;;;;;;;5052002;28;20496;-69
2023/01/22 04:52:48;;;;;;;17.45;12.77;;;;;;;;;;5051635;28;20135;-68
2023/01/22 04:55:14;;;;;;;;;;;;;;;;;;5052327;28;20045;-68
2023/01/22 04:57:41;;;;;;;16.90;12.55;;;;;;;;;;5034059;28;19924;-68
2023/01/22 05:00:08;;;;;;;20.38;13.02;;;;;;;;;;5051913;28;20127;-69
2023/01/22 05:02:34;;;;;;;22.65;13.52;;;;;;;;;;5051754;28;20049;-69
2023/01/22 05:05:01;;;;;;;19.75;13.20;;;;;;;;;;5033870;28;20049;-69
2023/01/22 05:07:27;;;;;;;21.98;13.55;;;;;;;;;;5051436;28;20059;-69
2023/01/22 05:09:53;;;;;;;21.90;14.02;;;;;;;;;;5051538;28;20052;-69
2023/01/22 05:12:20;;;;;;;21.40;13.80;;;;;;;;;;5051742;28;20040;-69
2023/01/22 05:14:46;;;;;;;20.05;13.75;;;;;;;;;;5051296;28;20045;-69
2023/01/22 05:17:12;;;;;;;19.98;13.57;;;;;;;;;;5051574;28;20045;-68
2023/01/22 05:19:39;;;;;;;18.73;13.88;;;;;;;;;;5033624;28;20052;-68
2023/01/22 05:22:06;;;;;;;20.52;14.07;;;;;;;;;;5051370;28;20048;-68
2023/01/22 05:24:32;;;;;;;19.95;13.57;;;;;;;;;;5051504;28;20049;-68
2023/01/22 05:26:58;;;;;;;17.98;13.18;;;;;;;;;;5051447;28;20120;-69
2023/01/22 05:29:26;;;;;;;18.20;12.80;;;;;;;;;;5051556;28;20048;-68
2023/01/22 05:31:53;;;;;;;18.73;13.55;;;;;;;;;;5033570;28;20064;-68
2023/01/22 05:34:19;;;;;;;19.90;13.10;;;;;;;;;;5051282;28;20067;-68
2023/01/22 05:36:46;;;;;;;18.33;12.85;;;;;;;;;;5033299;28;20049;-68
2023/01/22 05:39:13;;;;;;;18.75;12.55;;;;;;;;;;5033367;28;20059;-69
2023/01/22 05:41:39;;;;;;;19.23;13.25;;;;;;;;;;5051538;28;20087;-68
2023/01/22 05:44:06;;;;;;;19.30;13.23;;;;;;;;;;5051313;28;20049;-68
2023/01/22 05:46:32;;;;;;;18.02;12.85;;;;;;;;;;5051096;28;20067;-68
2023/01/22 05:48:59;;;;;;;21.10;13.95;;;;;;;;;;5033424;28;20102;-69
2023/01/22 05:51:25;;;;;;;19.83;13.85;;;;;;;;;;5051291;28;20048;-69
2023/01/22 05:53:51;;;;;;;20.42;14.43;;;;;;;;;;5051147;28;20051;-69
2023/01/22 05:56:18;;;;;;;20.65;13.65;;;;;;;;;;5051023;28;20124;-68
2023/01/22 05:58:44;;;;;;;21.63;15.32;;;;;;;;;;5051159;28;20048;-68
2023/01/22 06:01:11;;;;;;;23.52;15.48;;;;;;;;;;5050894;28;20047;-68
2023/01/22 06:03:37;;;;;;;25.08;14.68;;;;;;;;;;5051062;28;20057;-68
2023/01/22 06:06:05;;;;;;;21.58;14.68;;;;;;;;;;5051022;28;20045;-68
2023/01/22 06:08:31;;;;;;;26.00;14.63;;;;;;;;;;5033294;28;20106;-69
2023/01/22 06:10:59;;;;;;;;;;;;;;;;;;5033690;28;20128;-69
2023/01/22 06:13:26;;;;;;;23.33;14.23;;;;;;;;;;5051098;28;19920;-68
2023/01/22 06:15:52;;;;;;;21.60;14.93;;;;;;;;;;5050792;28;20550;-69
2023/01/22 06:18:20;;;;;;;21.42;13.90;;;;;;;;;;5051141;28;20439;-68
2023/01/22 06:20:46;;;;;;;20.10;13.40;;;;;;;;;;5051160;28;20463;-68
2023/01/22 06:23:13;;;;;;;21.33;14.73;;;;;;;;;;5032924;28;20519;-68
2023/01/22 06:25:39;;;;;;;20.83;14.15;;;;;;;;;;5050861;28;20064;-68
2023/01/22 06:28:05;;;;;;;23.25;14.88;;;;;;;;;;5051850;28;20049;-68
2023/01/22 06:30:32;;;;;;;23.25;14.93;;;;;;;;;;5054302;28;20045;-68
2023/01/22 06:32:58;;;;;;;22.98;14.82;;;;;;;;;;5054582;28;20130;-68
2023/01/22 06:35:25;;;;;;;20.38;14.15;;;;;;;;;;5054094;28;20055;-68
2023/01/22 06:37:51;;;;;;;20.63;15.10;;;;;;;;;;5054117;28;20064;-68
2023/01/22 06:40:17;;;;;;;22.73;14.45;;;;;;;;;;5054053;28;20048;-68
2023/01/22 06:42:44;;;;;;;19.02;13.82;;;;;;;;;;5054050;28;20171;-69
2023/01/22 06:45:11;;;;;;;20.60;13.60;;;;;;;;;;5036272;28;20059;-69
2023/01/22 06:47:41;;;;;;;17.70;13.70;;;;;;;;;;5053745;28;20045;-69
2023/01/22 06:50:08;;;;;;;18.05;13.02;;;;;;;;;;5054321;28;20060;-69
2023/01/22 06:52:34;;;;;;;19.35;13.77;;;;;;;;;;5036261;28;20049;-68
2023/01/22 06:55:01;;;;;;;19.70;14.40;;;;;;;;;;5054072;28;20045;-69
2023/01/22 06:57:27;;;;;;;20.85;14.55;;;;;;;;;;5036299;28;20051;-69
2023/01/22 06:59:54;;;;;;;19.83;14.13;;;;;;;;;;5036343;28;20041;-69
2023/01/22 07:02:20;;;;;;;20.88;14.70;;;;;;;;;;5036163;28;20404;-69
2023/01/22 07:04:47;;;;;;;21.88;14.77;;;;;;;;;;5036091;28;20059;-69
2023/01/22 07:07:13;;;;;;;18.17;13.55;;;;;;;;;;5053550;28;20132;-69
2023/01/22 07:09:40;;;;;;;20.25;13.85;;;;;;;;;;5053368;28;20100;-69
2023/01/22 07:12:06;;;;;;;21.35;14.52;;;;;;;;;;5053705;28;20053;-69
2023/01/22 07:14:32;;;;;;;19.83;14.07;;;;;;;;;;5053313;28;20041;-69
2023/01/22 07:17:03;;;;;;;19.75;14.00;;;;;;;;;;5053441;28;20417;-68
2023/01/22 07:19:29;;;;;;;19.45;14.40;;;;;;;;;;5053667;28;20475;-68
2023/01/22 07:21:55;;;;;;;18.45;13.43;;;;;;;;;;5053477;28;20095;-68
2023/01/22 07:24:22;;;;;;;19.05;14.15;;;;;;;;;;5053553;28;20071;-68
2023/01/22 07:26:48;;;;;;;19.67;14.25;;;;;;;;;;5053769;28;20079;-68
2023/01/22 07:29:15;;;;;;;19.67;13.63;;;;;;;;;;5053465;28;20049;-69
2023/01/22 07:31:41;;;;;;;21.75;14.35;;;;;;;;;;5053460;28;20098;-68
2023/01/22 07:34:08;;;;;;;21.10;13.52;;;;;;;;;;5053280;28;20051;-69
2023/01/22 07:36:34;;;;;;;20.60;13.90;;;;;;;;;;5053059;28;20053;-68
2023/01/22 07:39:04;;;;;;;18.98;14.35;;;;;;;;;;5052512;28;20464;-68
2023/01/22 07:41:31;;;;;;;17.80;13.77;;;;;;;;;;5035307;28;20099;-68
2023/01/22 07:43:59;;;;;;;18.88;13.52;;;;;;;;;;5052879;28;20507;-68
2023/01/22 07:46:26;;;;;;;19.20;13.90;;;;;;;;;;5035405;28;20178;-68
2023/01/22 07:48:52;;;;;;;20.00;13.02;;;;;;;;;;5052796;28;20057;-68
2023/01/22 07:51:19;;;;;;;19.67;13.68;;;;;;;;;;5052771;28;20049;-68
2023/01/22 07:53:46;;;;;;;21.38;13.93;;;;;;;;;;5052634;28;20051;-68
2023/01/22 07:56:12;;;;;;;23.33;17.05;;;;;;;;;;5052747;28;20497;-68
2023/01/22 07:58:40;;;;;;;23.02;15.88;;;;;;;;;;5052547;28;20421;-68
2023/01/22 08:01:06;;;;;;;19.98;13.82;;;;;;;;;;5052545;28;20045;-68
2023/01/22 08:03:33;;;;;;;18.05;14.10;;;;;;;;;;5052767;28;20053;-68
2023/01/22 08:05:59;;;;;;;20.35;13.77;;;;;;;;;;5052418;28;20080;-69
2023/01/22 08:08:26;;;;;;;18.60;13.60;;;;;;;;;;5051232;28;20087;-68
2023/01/22 08:10:56;;;;;;;19.23;13.38;;;;;;;;;;5036954;28;20136;-67
2023/01/22 08:13:23;;;;;;;18.70;13.32;;;;;;;;;;5032240;28;20075;-68
2023/01/22 08:15:49;;;;;;;20.90;13.88;;;;;;;;;;5032341;28;20061;-69
2023/01/22 08:18:16;;;;;;;19.70;14.05;;;;;;;;;;5031843;28;20045;-68
2023/01/22 08:20:45;;;;;;;19.25;13.90;;;;;;;;;;5034280;28;20103;-70
2023/01/22 08:23:11;;;;;;;21.85;15.10;;;;;;;;;;5051194;28;20044;-69
2023/01/22 08:25:38;;;;;;;22.77;16.33;;;;;;;;;;5049166;28;20083;-69
2023/01/22 08:28:05;;;;;;;34.65;22.38;;;;;;;;;;5050978;28;20052;-69
2023/01/22 08:30:33;;;;;;;56.85;37.88;;;;;;;;;;5049654;28;20053;-69
2023/01/22 08:33:11;;;;;;;37.63;27.35;;;;;;;;;;5051134;28;20052;-68
2023/01/22 08:35:37;;;;;;;19.52;14.65;;;;;;;;;;5048197;28;20502;-68
2023/01/22 08:38:04;;;;;;;22.13;15.23;;;;;;;;;;5050619;28;20483;-69
2023/01/22 08:40:30;;;;;;;19.50;13.27;;;;;;;;;;5050773;28;20037;-68
2023/01/22 08:42:57;;;;;;;19.20;14.48;;;;;;;;;;5050625;28;20049;-68
2023/01/22 08:45:23;;;;;;;19.60;14.25;;;;;;;;;;5047779;28;20571;-68
2023/01/22 08:47:54;;;;;;;18.20;13.57;;;;;;;;;;5037855;28;20088;-67
2023/01/22 08:50:20;;;;;;;19.73;14.55;;;;;;;;;;5037176;28;20489;-69
2023/01/22 08:52:47;;;;;;;17.80;13.18;;;;;;;;;;5033462;28;20576;-68
2023/01/22 08:55:13;;;;;;;20.73;14.25;;;;;;;;;;5049842;28;20044;-64
2023/01/22 08:57:39;;;;;;;20.05;14.55;;;;;;;;;;5051079;28;20049;-68
2023/01/22 09:00:07;;;;;;;22.02;14.80;;;;;;;;;;5051328;28;20377;-66
2023/01/22 09:02:33;;;;;;;21.45;14.45;;;;;;;;;;5033576;28;20126;-67
2023/01/22 09:05:00;;;;;;;20.55;13.68;;;;;;;;;;5051046;28;20049;-65
2023/01/22 09:07:26;;;;;;;23.50;16.55;;;;;;;;;;5050655;28;20049;-66
2023/01/22 09:09:53;;;;;;;21.45;15.63;;;;;;;;;;5050707;28;20087;-66
2023/01/22 09:12:19;;;;;;;24.13;16.90;;;;;;;;;;5050707;28;20085;-67
2023/01/22 09:14:46;;;;;;;20.83;15.50;;;;;;;;;;5050463;28;20052;-67
2023/01/22 09:17:12;;;;;;;22.17;15.93;;;;;;;;;;5051130;28;20049;-63
2023/01/22 09:19:39;;;;;;;21.30;15.60;;;;;;;;;;5050749;28;20124;-66
2023/01/22 09:22:06;;;;;;;22.70;15.70;;;;;;;;;;5032602;28;20045;-66
2023/01/22 09:24:32;;;;;;;24.02;16.83;;;;;;;;;;5048775;28;20151;-67
2023/01/22 09:26:59;;;;;;;25.33;17.27;;;;;;;;;;5050602;28;20076;-65
2023/01/22 09:29:28;;;;;;;23.05;16.60;;;;;;;;;;5050549;28;20045;-70
2023/01/22 09:31:55;;;;;;;23.33;15.77;;;;;;;;;;5050824;28;20087;-70
2023/01/22 09:34:21;;;;;;;22.13;15.85;;;;;;;;;;5050692;28;20045;-68
2023/01/22 09:36:48;;;;;;;23.67;17.25;;;;;;;;;;5050919;28;20057;-68
2023/01/22 09:39:14;;;;;;;25.70;17.83;;;;;;;;;;5050975;28;20490;-68
2023/01/22 09:41:43;;;;;;;25.30;17.98;;;;;;;;;;5050966;28;20060;-68
2023/01/22 09:44:15;;;;;;;24.27;16.90;;;;;;;;;;5040180;28;20087;-67
2023/01/22 09:46:46;;;;;;;24.73;16.75;;;;;;;;;;5050720;28;20515;-67
2023/01/22 09:49:16;;;;;;;21.98;16.00;;;;;;;;;;5048047;28;20053;-67
2023/01/22 09:51:45;;;;;;;21.92;16.33;;;;;;;;;;5050245;28;20053;-66
2023/01/22 09:54:14;;;;;;;20.48;15.77;;;;;;;;;;5050114;28;20049;-67
2023/01/22 09:56:42;;;;;;;24.70;17.98;;;;;;;;;;5050436;28;20079;-68
2023/01/22 09:59:19;;;;;;;32.10;22.08;;;;;;;;;;5050155;28;20127;-68
2023/01/22 10:01:48;;;;;;;22.88;16.50;;;;;;;;;;5050140;28;20049;-67
2023/01/22 10:04:23;;;;;;;21.65;15.77;;;;;;;;;;5050201;28;20124;-70
2023/01/22 10:06:51;;;;;;;22.48;15.10;;;;;;;;;;5054016;28;20041;-67
2023/01/22 10:09:19;;;;;;;21.35;14.90;;;;;;;;;;5054116;28;20077;-67
2023/01/22 10:11:49;;;;;;;27.23;17.90;;;;;;;;;;5054666;28;20136;-63
2023/01/22 10:14:16;;;;;;;23.55;16.83;;;;;;;;;;5054610;28;20140;-66
2023/01/22 10:16:44;;;;;;;22.33;15.57;;;;;;;;;;5049147;28;20084;-67
2023/01/22 10:19:20;;;;;;;20.98;15.63;;;;;;;;;;5035062;28;20045;-67
2023/01/22 10:21:48;;;;;;;21.83;15.60;;;;;;;;;;5053570;28;20048;-68
2023/01/22 10:24:14;;;;;;;;;;;;;;;;;;5054224;28;20427;-67
2023/01/22 10:26:47;;;;;;;20.05;15.73;;;;;;;;;;5053301;28;20523;-67
2023/01/22 10:29:23;;;;;;;23.42;16.63;;;;;;;;;;5054580;28;20136;-67
2023/01/22 10:31:51;;;;;;;20.38;15.20;;;;;;;;;;5054392;28;20156;-67
2023/01/22 10:34:29;;;;;;;23.58;17.10;;;;;;;;;;5054285;28;20053;-67
2023/01/22 10:36:59;;;;;;;25.73;17.42;;;;;;;;;;5054179;28;20048;-67
2023/01/22 10:39:25;;;;;;;23.27;17.20;;;;;;;;;;5054469;28;20040;-67
2023/01/22 10:41:58;;;;;;;23.33;18.52;;;;;;;;;;5054138;28;20049;-67
2023/01/22 10:44:25;;;;;;;21.35;17.65;;;;;;;;;;5053911;28;20041;-67
2023/01/22 10:46:53;;;;;;;22.08;18.00;;;;;;;;;;5053871;28;20049;-67
2023/01/22 10:49:21;;;;;;;19.90;15.23;;;;;;;;;;5035992;28;20560;-67
2023/01/22 10:51:49;;;;;;;19.95;14.88;;;;;;;;;;5054179;28;20051;-67
2023/01/22 10:54:29;;;;;;;21.02;15.45;;;;;;;;;;5053734;28;20064;-68
2023/01/22 10:57:14;;;;;;;21.88;16.60;;;;;;;;;;5053967;28;20111;-68
2023/01/22 10:59:47;;;;;;;18.15;15.15;;;;;;;;;;5053965;28;20053;-67
2023/01/22 11:02:21;;;;;;;22.05;15.98;;;;;;;;;;5054082;28;20071;-67
2023/01/22 11:04:48;;;;;;;36.97;25.38;;;;;;;;;;5053817;28;20102;-67
2023/01/22 11:07:27;;;;;;;47.90;31.95;;;;;;;;;;5053521;28;20501;-67
2023/01/22 11:10:16;;;;;;;34.40;25.40;;;;;;;;;;5053660;28;20048;-67
2023/01/22 11:12:45;;;;;;;35.33;23.73;;;;;;;;;;5053818;28;20115;-67
2023/01/22 11:15:19;;;;;;;26.77;20.63;;;;;;;;;;5053355;28;20037;-68
2023/01/22 11:17:48;;;;;;;25.13;18.90;;;;;;;;;;5053550;28;20428;-68
2023/01/22 11:20:15;;;;;;;26.15;19.38;;;;;;;;;;5053347;28;20463;-67
2023/01/22 11:22:44;;;;;;;25.97;19.87;;;;;;;;;;5035242;28;20136;-67
2023/01/22 11:25:10;;;;;;;;;;;;;;;;;;5053320;28;20783;-67
2023/01/22 11:27:45;;;;;;;23.08;17.80;;;;;;;;;;5043277;28;19925;-68
2023/01/22 11:30:17;;;;;;;21.95;16.73;;;;;;;;;;5044692;28;20049;-67
2023/01/22 11:33:25;;;;;;;20.40;15.45;;;;;;;;;;5052352;28;20057;-67
2023/01/22 11:35:57;;;;;;;21.58;16.33;;;;;;;;;;4969278;28;20125;-67
2023/01/22 11:38:34;;;;;;;20.63;16.30;;;;;;;;;;4971195;28;20089;-67
2023/01/22 11:41:25;;;;;;;19.95;15.85;;;;;;;;;;5016272;28;20045;-68
2023/01/22 11:44:03;;;;;;;18.15;15.05;;;;;;;;;;5053014;28;20084;-68
2023/01/22 11:46:48;;;;;;;19.35;16.17;;;;;;;;;;5052671;28;20088;-68
2023/01/22 11:49:23;;;;;;;22.13;17.33;;;;;;;;;;5052435;28;20090;-68
2023/01/22 11:52:09;;;;;;;22.05;18.00;;;;;;;;;;5052050;28;20049;-67
2023/01/22 11:54:47;;;;;;;21.00;17.02;;;;;;;;;;5052369;28;20059;-67
2023/01/22 11:57:15;;;;;;;17.13;14.38;;;;;;;;;;5052171;28;20128;-68
2023/01/22 11:59:47;;;;;;;16.23;14.43;;;;;;;;;;5052394;28;20056;-69
2023/01/22 12:02:32;;;;;;;18.90;15.75;;;;;;;;;;5052183;28;20403;-68
2023/01/22 12:05:22;;;;;;;17.27;13.98;;;;;;;;;;5052320;28;20158;-68
2023/01/22 12:07:49;;;;;;;17.45;15.57;;;;;;;;;;5052117;28;20053;-67
2023/01/22 12:10:26;;;;;;;18.75;16.08;;;;;;;;;;5034206;28;20136;-68
2023/01/22 12:12:58;;;;;;;19.13;16.83;;;;;;;;;;5051860;28;20822;-68
2023/01/22 12:15:28;;;;;;;21.75;18.17;;;;;;;;;;5051975;28;20049;-68
2023/01/22 12:18:27;;;;;;;20.08;17.92;;;;;;;;;;5051514;28;20087;-67
2023/01/22 12:21:16;;;;;;;21.42;18.58;;;;;;;;;;5051868;28;20075;-67
2023/01/22 12:23:48;;;;;;;22.25;17.58;;;;;;;;;;5052006;28;20073;-68
2023/01/22 12:26:25;;;;;;;21.45;17.63;;;;;;;;;;5051026;28;20049;-67
2023/01/22 12:29:14;;;;;;;18.60;16.70;;;;;;;;;;5051625;28;20449;-68
2023/01/22 12:31:40;;;;;;;18.50;16.20;;;;;;;;;;5033014;28;20284;-68
2023/01/22 12:34:22;;;;;;;20.00;16.52;;;;;;;;;;5031757;28;20045;-68
2023/01/22 12:36:49;;;;;;;18.92;16.33;;;;;;;;;;5051666;28;20080;-68
2023/01/22 12:39:24;;;;;;;18.88;15.25;;;;;;;;;;5051323;28;20488;-67
2023/01/22 12:42:09;;;;;;;18.80;15.63;;;;;;;;;;5051702;28;20045;-67
2023/01/22 12:44:39;;;;;;;16.90;15.07;;;;;;;;;;5051504;28;20076;-68
2023/01/22 12:47:24;;;;;;;18.98;15.63;;;;;;;;;;5033806;28;20128;-59
2023/01/22 12:49:51;;;;;;;18.40;15.93;;;;;;;;;;5051848;28;20047;-69
2023/01/22 12:52:30;;;;;;;17.95;15.68;;;;;;;;;;5050588;28;20045;-68
2023/01/22 12:54:57;;;;;;;17.42;15.32;;;;;;;;;;5033127;28;20084;-69
2023/01/22 12:57:25;;;;;;;18.67;16.00;;;;;;;;;;5051216;28;20041;-69
2023/01/22 12:59:53;;;;;;;17.08;15.23;;;;;;;;;;5051572;28;20051;-69
2023/01/22 13:02:19;;;;;;;;;;;;;;;;;;5048464;28;20119;-68
2023/01/22 13:04:46;;;;;;;15.52;13.75;;;;;;;;;;5050858;28;20070;-68
2023/01/22 13:07:23;;;;;;;14.45;12.85;;;;;;;;;;5051210;28;20401;-69
2023/01/22 13:09:59;;;;;;;15.70;13.45;;;;;;;;;;5051333;28;20135;-68
2023/01/22 13:12:27;;;;;;;17.50;13.57;;;;;;;;;;5033418;28;20045;-68
2023/01/22 13:14:54;;;;;;;15.10;13.48;;;;;;;;;;5050733;28;20045;-67
2023/01/22 13:17:25;;;;;;;18.73;13.57;;;;;;;;;;5050820;28;20128;-67
2023/01/22 13:19:53;;;;;;;15.70;13.50;;;;;;;;;;5050704;28;20394;-68
2023/01/22 13:22:21;;;;;;;13.02;11.25;;;;;;;;;;5050636;28;20037;-66
2023/01/22 13:24:52;;;;;;;13.88;12.00;;;;;;;;;;5050333;28;20044;-67
2023/01/22 13:27:23;;;;;;;12.05;10.88;;;;;;;;;;5050421;28;20122;-66
2023/01/22 13:29:49;;;;;;;14.23;11.55;;;;;;;;;;5050550;28;20420;-67
2023/01/22 13:32:19;;;;;;;13.68;11.43;;;;;;;;;;5050286;28;20120;-67
2023/01/22 13:34:46;;;;;;;13.02;11.40;;;;;;;;;;5048323;28;20049;-67
2023/01/22 13:37:22;;;;;;;14.32;12.18;;;;;;;;;;5051867;28;20802;-68
2023/01/22 13:39:49;;;;;;;14.27;12.77;;;;;;;;;;5054630;28;20051;-66
2023/01/22 13:42:15;;;;;;;15.50;12.77;;;;;;;;;;5054567;28;20076;-68
2023/01/22 13:44:43;;;;;;;17.80;13.48;;;;;;;;;;5054518;28;20091;-67
2023/01/22 13:47:22;;;;;;;14.45;11.80;;;;;;;;;;5051496;28;20045;-68
2023/01/22 13:49:48;;;;;;;12.38;11.05;;;;;;;;;;5054653;28;20055;-67
2023/01/22 13:52:16;;;;;;;12.82;10.65;;;;;;;;;;5054532;28;20049;-69
2023/01/22 13:54:45;;;;;;;15.27;10.73;;;;;;;;;;5042897;28;20055;-66
2023/01/22 13:57:13;;;;;;;11.65;10.45;;;;;;;;;;5054734;28;20041;-66
2023/01/22 13:59:40;;;;;;;;;;;;;;;;;;5054548;28;20045;-66
2023/01/22 14:02:18;;;;;;;12.40;11.10;;;;;;;;;;5053842;28;19921;-66
2023/01/22 14:04:46;;;;;;;15.48;13.30;;;;;;;;;;5054585;28;20048;-66
2023/01/22 14:07:24;;;;;;;15.37;13.17;;;;;;;;;;5054696;28;20080;-66
2023/01/22 14:09:51;;;;;;;16.80;13.68;;;;;;;;;;5055199;28;20611;-67
2023/01/22 14:12:19;;;;;;;16.17;14.02;;;;;;;;;;5036968;28;20513;-66
2023/01/22 14:14:46;;;;;;;17.55;14.52;;;;;;;;;;5054644;28;20053;-66
2023/01/22 14:17:19;;;;;;;16.75;13.93;;;;;;;;;;5054919;28;20056;-66
2023/01/22 14:19:46;;;;;;;19.77;16.05;;;;;;;;;;5054558;28;20053;-66
2023/01/22 14:22:12;;;;;;;18.00;15.07;;;;;;;;;;5054625;28;20045;-67
2023/01/22 14:24:39;;;;;;;17.13;14.32;;;;;;;;;;5054668;28;20045;-66
2023/01/22 14:27:05;;;;;;;16.85;14.23;;;;;;;;;;5054422;28;20445;-66
2023/01/22 14:29:32;;;;;;;19.73;14.80;;;;;;;;;;5054545;28;20053;-66
2023/01/22 14:31:58;;;;;;;19.42;15.90;;;;;;;;;;5054628;28;20045;-66
2023/01/22 14:34:25;;;;;;;20.95;17.52;;;;;;;;;;5036644;28;20404;-67
2023/01/22 14:36:52;;;;;;;25.52;19.90;;;;;;;;;;5054010;28;20045;-67